Time;durP1;ratioP1;P1;durP2;ratioP2;P2;SDS_P1;SDS_P2;PMS_P1;PMS_P2;Temp;Humidity;BMP_temperature;BMP_pressure;BME280_temperature;BME280_humidity;BME280_pressure;Samples;Min_cycle;Max_cycle;Signal;HPM_P1;HPM_P2
2022/01/01 00:00:08;;;;;;;62.00;37.67;;;5.90;99.90;;;;;;5024356;28;20048;-79
2022/01/01 00:02:35;;;;;;;59.15;38.78;;;6.00;99.90;;;;;;5012991;28;20474;-78
2022/01/01 00:05:01;;;;;;;74.65;45.30;;;5.90;99.90;;;;;;5026827;28;20044;-80
2022/01/01 00:07:26;;;;;;;;;;;5.90;99.90;;;;;;5029434;28;20014;-79
2022/01/01 00:09:52;;;;;;;146.25;82.80;;;5.80;99.90;;;;;;5027254;28;19914;-79
2022/01/01 00:12:18;;;;;;;152.05;84.32;;;5.60;99.90;;;;;;5027398;28;20030;-80
2022/01/01 00:14:44;;;;;;;115.32;65.88;;;5.50;99.90;;;;;;5029024;28;20030;-79
2022/01/01 00:17:10;;;;;;;;;;;5.40;99.90;;;;;;5023850;28;20037;-79
2022/01/01 00:19:35;;;;;;;85.15;47.78;;;5.40;99.90;;;;;;5019379;28;19909;-79
2022/01/01 00:22:06;;;;;;;;;;;5.30;99.90;;;;;;5024329;28;20026;-79
2022/01/01 00:24:34;;;;;;;65.95;37.33;;;5.20;99.90;;;;;;5023013;28;19917;-79
2022/01/01 00:27:00;;;;;;;82.95;50.58;;;5.10;99.90;;;;;;5021880;28;20096;-78
2022/01/01 00:29:25;;;;;;;;;;;5.00;99.90;;;;;;5021390;28;20042;-79
2022/01/01 00:31:51;;;;;;;73.32;43.83;;;4.80;99.90;;;;;;5018522;28;19972;-79
2022/01/01 00:34:16;;;;;;;;;;;4.80;99.90;;;;;;5022641;28;20026;-78
2022/01/01 00:36:42;;;;;;;84.47;47.63;;;4.60;99.90;;;;;;5024218;28;19909;-78
2022/01/01 00:39:08;;;;;;;;;;;4.60;99.90;;;;;;5022763;28;20026;-80
2022/01/01 00:41:33;;;;;;;79.40;44.53;;;4.50;99.90;;;;;;5022585;28;19913;-79
2022/01/01 00:43:59;;;;;;;;;;;4.50;99.90;;;;;;5022706;28;20026;-79
2022/01/01 00:46:25;;;;;;;65.20;36.38;;;4.40;99.90;;;;;;5019192;28;20354;-78
2022/01/01 00:48:53;;;;;;;;;;;4.40;99.90;;;;;;5023083;28;20034;-80
2022/01/01 00:51:20;;;;;;;52.08;30.17;;;4.30;99.90;;;;;;5025285;28;19976;-80
2022/01/01 00:53:46;;;;;;;54.70;33.03;;;4.30;99.90;;;;;;5024961;28;20026;-80
2022/01/01 00:56:11;;;;;;;;;;;4.40;99.90;;;;;;5025750;28;20034;-79
2022/01/01 00:58:37;;;;;;;64.93;38.40;;;4.40;99.90;;;;;;5025694;28;19909;-80
2022/01/01 01:01:03;;;;;;;;;;;4.40;99.90;;;;;;5026945;28;20026;-80
2022/01/01 01:03:28;;;;;;;79.10;44.78;;;4.40;99.90;;;;;;5025612;28;19906;-80
2022/01/01 01:05:54;;;;;;;;;;;4.60;99.90;;;;;;5020416;28;20536;-79
2022/01/01 01:08:19;;;;;;;28.10;15.48;;;4.60;99.90;;;;;;5015532;28;19924;-78
2022/01/01 01:10:47;;;;;;;;;;;4.70;99.90;;;;;;5016802;28;20060;-79
2022/01/01 01:13:15;;;;;;;44.63;27.52;;;4.90;99.90;;;;;;5017041;28;19956;-79
2022/01/01 01:15:41;;;;;;;51.10;28.55;;;4.90;99.90;;;;;;5017255;28;20030;-79
2022/01/01 01:18:07;;;;;;;49.47;30.48;;;4.80;99.90;;;;;;5014969;28;20029;-79
2022/01/01 01:20:32;;;;;;;;;;;4.70;99.90;;;;;;5017649;28;20029;-79
2022/01/01 01:22:58;;;;;;;34.97;20.23;;;4.60;99.90;;;;;;5016950;28;20374;-79
2022/01/01 01:25:28;;;;;;;;;;;4.60;99.90;;;;;;5017265;28;20601;-77
2022/01/01 01:27:54;;;;;;;35.17;21.35;;;4.60;99.90;;;;;;5016047;28;19932;-80
2022/01/01 01:30:20;;;;;;;;;;;4.50;99.90;;;;;;5016739;28;20033;-80
2022/01/01 01:32:46;;;;;;;41.80;25.55;;;4.50;99.90;;;;;;5015626;28;19964;-79
2022/01/01 01:35:12;;;;;;;;;;;4.40;99.90;;;;;;5020223;28;20538;-78
2022/01/01 01:37:38;;;;;;;52.67;32.40;;;4.40;99.90;;;;;;5030068;28;19949;-80
2022/01/01 01:40:06;;;;;;;49.03;29.45;;;4.30;99.90;;;;;;5032672;28;20061;-79
2022/01/01 01:42:33;;;;;;;41.10;22.55;;;4.30;99.90;;;;;;5009563;28;20058;-80
2022/01/01 01:45:02;;;;;;;31.42;17.60;;;4.30;99.90;;;;;;5019978;28;20030;-79
2022/01/01 01:47:36;;;;;;;24.27;15.00;;;4.50;99.90;;;;;;5022969;28;20026;-79
2022/01/01 01:50:06;;;;;;;29.48;15.57;;;4.60;99.90;;;;;;5026162;28;20486;-81
2022/01/01 01:52:36;;;;;;;31.73;18.77;;;4.60;99.90;;;;;;5027325;28;20094;-79
2022/01/01 01:55:05;;;;;;;43.90;22.05;;;4.70;99.90;;;;;;5026779;28;20034;-80
2022/01/01 01:57:33;;;;;;;33.72;16.70;;;4.80;99.90;;;;;;5027150;28;20022;-80
2022/01/01 01:59:59;;;;;;;28.95;17.08;;;4.80;99.90;;;;;;5021435;28;20168;-79
2022/01/01 02:02:25;;;;;;;;;;;4.90;99.90;;;;;;5023124;28;20026;-80
2022/01/01 02:04:52;;;;;;;34.72;17.60;;;4.90;99.90;;;;;;5022374;28;19910;-80
2022/01/01 02:07:25;;;;;;;37.55;18.85;;;4.90;99.90;;;;;;5023958;28;20049;-80
2022/01/01 02:09:51;;;;;;;34.33;18.30;;;4.90;99.90;;;;;;5024562;28;20033;-80
2022/01/01 02:12:17;;;;;;;;;;;5.00;99.90;;;;;;5022219;28;20058;-80
2022/01/01 02:17:14;;;;;;;37.33;18.67;;;5.10;99.90;;;;;;5022351;28;19932;-80
2022/01/01 02:19:55;;;;;;;37.55;17.90;;;5.30;99.90;;;;;;5031031;28;20066;-80
2022/01/01 02:22:23;;;;;;;32.95;17.58;;;5.40;99.90;;;;;;5031352;28;20030;-80
2022/01/01 02:27:54;;;;;;;32.60;17.52;;;5.50;99.90;;;;;;5026544;28;20080;-80
2022/01/01 02:30:21;;;;;;;32.20;17.80;;;5.50;99.90;;;;;;5031265;28;20037;-80
2022/01/01 02:33:07;;;;;;;;;;;5.50;99.90;;;;;;5025066;28;20034;-79
2022/01/01 02:35:34;;;;;;;27.10;15.80;;;5.70;99.90;;;;;;5026732;28;19905;-80
2022/01/01 02:38:00;;;;;;;;;;;5.70;99.90;;;;;;5027618;28;20030;-80
2022/01/01 02:40:26;;;;;;;23.35;12.38;;;5.80;99.90;;;;;;5026179;28;19912;-79
2022/01/01 02:42:53;;;;;;;;;;;5.80;99.90;;;;;;5025855;28;20113;-80
2022/01/01 02:45:20;;;;;;;20.05;11.85;;;5.80;99.90;;;;;;5024804;28;19952;-80
2022/01/01 02:47:46;;;;;;;18.52;11.13;;;5.70;99.90;;;;;;5024995;28;20044;-79
2022/01/01 02:50:12;;;;;;;;;;;5.70;99.90;;;;;;5024788;28;20065;-79
2022/01/01 02:52:38;;;;;;;18.35;11.23;;;5.80;99.90;;;;;;5025898;28;19912;-80
2022/01/01 02:55:04;;;;;;;;;;;5.90;99.90;;;;;;5027790;28;20045;-80
2022/01/01 02:57:30;;;;;;;21.58;11.98;;;6.10;99.90;;;;;;5027589;28;20016;-80
2022/01/01 02:59:56;;;;;;;;;;;6.30;99.90;;;;;;5027613;28;20029;-78
2022/01/01 03:02:21;;;;;;;20.95;12.68;;;6.60;99.90;;;;;;5032135;28;19905;-78
2022/01/01 03:04:48;;;;;;;;;;;6.70;99.90;;;;;;5031234;28;20028;-78
2022/01/01 03:07:14;;;;;;;18.88;10.98;;;6.90;99.90;;;;;;5032946;28;19980;-78
2022/01/01 03:09:40;;;;;;;;;;;7.00;99.90;;;;;;5032265;28;20041;-78
2022/01/01 03:12:08;;;;;;;19.98;10.45;;;7.00;99.90;;;;;;5032724;28;19902;-78
2022/01/01 03:14:34;;;;;;;18.77;10.93;;;7.10;99.90;;;;;;5029875;28;20057;-78
2022/01/01 03:17:00;;;;;;;17.52;10.15;;;7.20;99.90;;;;;;5019981;28;20064;-78
2022/01/01 03:19:26;;;;;;;;;;;7.20;99.90;;;;;;5022202;28;20040;-78
2022/01/01 03:21:52;;;;;;;15.98;8.80;;;7.30;99.90;;;;;;5023118;28;19905;-78
2022/01/01 03:24:17;;;;;;;;;;;7.40;99.90;;;;;;5023786;28;20036;-77
2022/01/01 03:26:44;;;;;;;17.33;9.90;;;7.40;99.90;;;;;;5023550;28;19909;-78
2022/01/01 03:29:10;;;;;;;17.45;9.88;;;7.40;99.90;;;;;;5021027;28;20103;-78
2022/01/01 03:31:36;;;;;;;;;;;7.50;99.90;;;;;;5020635;28;20018;-78
2022/01/01 03:34:02;;;;;;;17.95;9.43;;;7.60;99.90;;;;;;5022482;28;19981;-78
2022/01/01 03:36:28;;;;;;;16.55;9.48;;;7.60;99.90;;;;;;5021284;28;20029;-78
2022/01/01 03:38:55;;;;;;;17.10;10.18;;;7.80;99.90;;;;;;5021993;28;20048;-78
2022/01/01 03:41:20;;;;;;;15.43;9.77;;;7.80;99.90;;;;;;5013234;28;20072;-77
2022/01/01 03:43:46;;;;;;;;;;;8.00;99.90;;;;;;5029026;28;20498;-78
2022/01/01 03:46:12;;;;;;;15.15;9.25;;;7.90;99.90;;;;;;5029945;28;19913;-78
2022/01/01 03:48:38;;;;;;;;;;;8.00;99.90;;;;;;5027875;28;20033;-78
2022/01/01 03:51:04;;;;;;;17.42;9.00;;;8.00;99.90;;;;;;5028335;28;19909;-78
2022/01/01 03:53:30;;;;;;;15.55;9.27;;;8.10;99.90;;;;;;5026628;28;20033;-78
2022/01/01 03:55:55;;;;;;;;;;;8.20;99.90;;;;;;5029677;28;20038;-78
2022/01/01 03:58:21;;;;;;;18.95;10.52;;;8.20;99.90;;;;;;5034954;28;19912;-79
2022/01/01 04:00:47;;;;;;;;;;;8.20;99.90;;;;;;5036180;28;20026;-78
2022/01/01 04:03:16;;;;;;;32.40;12.82;;;8.30;99.90;;;;;;5033431;28;19893;-78
2022/01/01 04:05:43;;;;;;;18.75;10.75;;;8.40;99.90;;;;;;5030414;28;20033;-77
2022/01/01 04:08:11;;;;;;;17.52;10.80;;;8.40;99.90;;;;;;5032549;28;20030;-78
2022/01/01 04:10:38;;;;;;;17.55;10.35;;;8.50;99.90;;;;;;5033632;28;20088;-79
2022/01/01 04:13:06;;;;;;;17.88;10.35;;;8.60;99.90;;;;;;5026879;28;20023;-78
2022/01/01 04:15:33;;;;;;;15.63;9.40;;;8.70;99.90;;;;;;5017231;28;20026;-78
2022/01/01 04:18:08;;;;;;;16.55;10.48;;;8.70;99.90;;;;;;5017224;28;20052;-77
2022/01/01 04:20:33;;;;;;;17.08;11.10;;;8.70;99.90;;;;;;5018308;28;20033;-78
2022/01/01 04:23:00;;;;;;;18.92;10.73;;;8.70;99.90;;;;;;5018406;28;20029;-77
2022/01/01 04:25:26;;;;;;;;;;;8.70;99.90;;;;;;5021251;28;20025;-78
2022/01/01 04:27:54;;;;;;;18.88;9.80;;;8.70;99.90;;;;;;5022780;28;19909;-78
2022/01/01 04:30:21;;;;;;;15.75;9.70;;;8.70;99.90;;;;;;5023520;28;20034;-78
2022/01/01 04:32:49;;;;;;;15.52;9.77;;;8.60;99.90;;;;;;5023430;28;20026;-78
2022/01/01 04:35:15;;;;;;;18.38;9.02;;;8.60;99.90;;;;;;5024370;28;20032;-77
2022/01/01 04:37:41;;;;;;;13.73;8.13;;;8.60;99.90;;;;;;5024401;28;20030;-78
2022/01/01 04:40:07;;;;;;;;;;;8.80;99.90;;;;;;5019333;28;20021;-77
2022/01/01 04:42:33;;;;;;;14.30;8.70;;;8.70;99.90;;;;;;5016697;28;20373;-77
2022/01/01 04:44:59;;;;;;;14.60;7.93;;;8.90;99.90;;;;;;5017238;28;20037;-76
2022/01/01 04:47:25;;;;;;;;;;;9.00;99.90;;;;;;5018684;28;20030;-77
2022/01/01 04:49:51;;;;;;;11.93;6.50;;;8.90;99.90;;;;;;5014673;28;20056;-76
2022/01/01 04:52:16;;;;;;;;;;;8.90;99.90;;;;;;5015354;28;20088;-77
2022/01/01 04:54:43;;;;;;;15.25;7.10;;;8.90;99.90;;;;;;5016663;28;19960;-77
2022/01/01 04:57:10;;;;;;;14.35;8.00;;;9.00;99.90;;;;;;5019123;28;20019;-77
2022/01/01 04:59:37;;;;;;;11.77;7.35;;;9.00;99.90;;;;;;5019233;28;20061;-78
2022/01/01 05:02:03;;;;;;;12.75;7.45;;;8.90;99.90;;;;;;5018536;28;20088;-77
2022/01/01 05:04:29;;;;;;;11.20;6.72;;;8.80;99.90;;;;;;5018229;28;20030;-77
2022/01/01 05:06:55;;;;;;;;;;;8.80;99.90;;;;;;5018135;28;20030;-78
2022/01/01 05:09:21;;;;;;;9.90;4.97;;;8.80;99.90;;;;;;5017988;28;19928;-78
2022/01/01 05:11:47;;;;;;;11.88;5.72;;;8.90;99.90;;;;;;5019784;28;20062;-76
2022/01/01 05:14:14;;;;;;;10.77;6.30;;;8.90;99.90;;;;;;5018873;28;20060;-77
2022/01/01 05:16:40;;;;;;;9.52;5.75;;;9.00;99.90;;;;;;5016153;28;20030;-77
2022/01/01 05:19:06;;;;;;;15.05;6.22;;;9.00;99.90;;;;;;5016882;28;20383;-77
2022/01/01 05:21:34;;;;;;;11.15;5.50;;;9.00;99.90;;;;;;5016311;28;20025;-78
2022/01/01 05:24:01;;;;;;;9.88;6.05;;;9.00;99.90;;;;;;5017338;28;20033;-78
2022/01/01 05:26:27;;;;;;;11.93;5.68;;;9.00;99.90;;;;;;5016874;28;20037;-77
2022/01/01 05:28:53;;;;;;;;;;;9.00;99.90;;;;;;5015510;28;20041;-76
2022/01/01 05:31:19;;;;;;;10.65;5.47;;;9.00;99.90;;;;;;5015840;28;19968;-76
2022/01/01 05:33:49;;;;;;;8.23;5.07;;;9.00;99.90;;;;;;5015815;28;20034;-78
2022/01/01 05:36:16;;;;;;;9.70;5.47;;;9.00;99.90;;;;;;5018154;28;20029;-77
2022/01/01 05:38:43;;;;;;;10.32;5.50;;;9.00;99.90;;;;;;5019045;28;20097;-77
2022/01/01 05:41:09;;;;;;;10.85;5.32;;;9.00;99.90;;;;;;5017758;28;20053;-77
2022/01/01 05:43:34;;;;;;;;;;;9.00;99.90;;;;;;5019184;28;20026;-78
2022/01/01 05:46:01;;;;;;;10.70;5.40;;;9.10;99.90;;;;;;5018926;28;19968;-76
2022/01/01 05:48:27;;;;;;;8.57;4.78;;;9.10;99.90;;;;;;5017873;28;20022;-78
2022/01/01 05:50:53;;;;;;;8.13;4.63;;;9.20;99.90;;;;;;5017559;28;20048;-78
2022/01/01 05:53:19;;;;;;;;;;;9.20;99.90;;;;;;5023511;28;20042;-78
2022/01/01 05:55:48;;;;;;;7.22;4.70;;;9.10;99.90;;;;;;5022134;28;19909;-76
2022/01/01 05:58:15;;;;;;;9.27;5.43;;;9.10;99.90;;;;;;5025348;28;20022;-78
2022/01/01 06:00:41;;;;;;;7.00;3.90;;;9.20;99.90;;;;;;5031584;28;20010;-79
2022/01/01 06:03:08;;;;;;;6.75;4.13;;;9.20;99.90;;;;;;5032155;28;20033;-79
2022/01/01 06:05:43;;;;;;;6.38;3.67;;;9.30;99.90;;;;;;5033482;28;20032;-78
2022/01/01 06:08:54;;;;;;;6.57;3.60;;;9.30;99.90;;;;;;5034337;28;20034;-79
2022/01/01 06:11:24;;;;;;;5.82;3.75;;;9.40;99.90;;;;;;5031746;28;20042;-78
2022/01/01 06:14:22;;;;;;;10.27;4.90;;;9.40;99.90;;;;;;5182307;22;20045;-78
2022/01/01 06:17:38;;;;;;;7.72;4.75;;;9.50;99.90;;;;;;4998493;28;20038;-79
2022/01/01 06:20:38;;;;;;;7.32;4.00;;;9.60;99.90;;;;;;5033202;28;20037;-79
2022/01/01 06:23:06;;;;;;;13.88;3.88;;;9.50;99.90;;;;;;5019321;28;20069;-78
2022/01/01 06:25:33;;;;;;;6.22;3.70;;;9.60;99.90;;;;;;5014938;28;20060;-77
2022/01/01 06:27:59;;;;;;;6.35;3.50;;;9.60;99.90;;;;;;5012459;28;20069;-78
2022/01/01 06:30:24;;;;;;;;;;;9.60;99.90;;;;;;5013660;28;20042;-78
2022/01/01 06:32:52;;;;;;;7.13;3.55;;;9.60;99.90;;;;;;5014453;28;19920;-77
2022/01/01 06:35:18;;;;;;;7.50;3.75;;;9.60;99.90;;;;;;5012362;28;20026;-77
2022/01/01 06:37:43;;;;;;;;;;;9.60;99.90;;;;;;5013292;28;20072;-77
2022/01/01 06:40:09;;;;;;;5.95;3.30;;;9.60;99.90;;;;;;5012863;28;19935;-78
2022/01/01 06:42:35;;;;;;;5.65;3.40;;;9.60;99.90;;;;;;5013061;28;20033;-78
2022/01/01 06:45:00;;;;;;;;;;;9.60;99.90;;;;;;5013907;28;20249;-78
2022/01/01 06:47:26;;;;;;;7.97;3.80;;;9.60;99.90;;;;;;5013140;28;19905;-77
2022/01/01 06:49:51;;;;;;;;;;;9.70;99.90;;;;;;5014150;28;20072;-77
2022/01/01 06:52:17;;;;;;;6.35;3.80;;;9.70;99.90;;;;;;5011984;28;20290;-78
2022/01/01 06:54:43;;;;;;;;;;;9.60;99.90;;;;;;5014297;28;20030;-78
2022/01/01 06:57:08;;;;;;;5.68;3.50;;;9.60;99.90;;;;;;5013315;28;20281;-79
2022/01/01 06:59:34;;;;;;;;;;;9.50;99.90;;;;;;5015324;28;20030;-79
2022/01/01 07:01:59;;;;;;;6.28;3.72;;;9.50;99.90;;;;;;5014198;28;19960;-77
2022/01/01 07:04:25;;;;;;;;;;;9.40;99.90;;;;;;5014669;28;20029;-78
2022/01/01 07:06:51;;;;;;;5.22;3.28;;;9.50;99.90;;;;;;5016701;28;20366;-78
2022/01/01 07:09:16;;;;;;;;;;;9.50;99.90;;;;;;5017927;28;20433;-79
2022/01/01 07:11:43;;;;;;;8.93;3.97;;;9.70;99.90;;;;;;5022490;28;19961;-77
2022/01/01 07:14:11;;;;;;;6.05;3.38;;;9.70;99.90;;;;;;5018058;28;20049;-78
2022/01/01 07:16:37;;;;;;;7.22;3.30;;;9.90;99.90;;;;;;5016983;28;20026;-79
2022/01/01 07:19:02;;;;;;;;;;;9.90;99.90;;;;;;5015590;28;20048;-78
2022/01/01 07:21:28;;;;;;;5.78;3.10;;;10.10;99.90;;;;;;5016383;28;19905;-78
2022/01/01 07:23:54;;;;;;;;;;;10.20;99.90;;;;;;5019626;28;20029;-78
2022/01/01 07:26:20;;;;;;;7.45;2.90;;;10.60;99.90;;;;;;5025039;28;19945;-78
2022/01/01 07:28:46;;;;;;;4.25;2.08;;;10.90;99.90;;;;;;5026178;28;20034;-78
2022/01/01 07:31:12;;;;;;;;;;;11.10;99.90;;;;;;5022501;28;20075;-79
2022/01/01 07:33:37;;;;;;;5.28;1.92;;;11.30;99.90;;;;;;5022226;28;19913;-77
2022/01/01 07:36:03;;;;;;;;;;;11.50;99.90;;;;;;5031358;28;20021;-79
2022/01/01 07:38:29;;;;;;;3.50;1.50;;;11.70;99.90;;;;;;5033990;28;19964;-79
2022/01/01 07:40:55;;;;;;;;;;;11.80;99.90;;;;;;5031981;28;20029;-78
2022/01/01 07:43:24;;;;;;;4.38;2.13;;;11.90;99.90;;;;;;5025673;28;19913;-78
2022/01/01 07:45:52;;;;;;;2.58;1.40;;;12.00;99.90;;;;;;5026196;28;20050;-78
2022/01/01 07:48:21;;;;;;;3.92;1.88;;;12.30;99.90;;;;;;5027801;28;20057;-79
2022/01/01 07:50:47;;;;;;;2.25;1.08;;;12.50;99.90;;;;;;5020390;28;20121;-77
2022/01/01 07:53:13;;;;;;;;;;;12.80;99.90;;;;;;5013739;28;20477;-77
2022/01/01 07:55:38;;;;;;;2.70;1.30;;;13.20;99.90;;;;;;5012223;28;19913;-78
2022/01/01 07:58:05;;;;;;;;;;;13.30;99.90;;;;;;5029533;28;20461;-78
2022/01/01 08:00:34;;;;;;;1.97;1.27;;;13.60;99.90;;;;;;5019302;28;19920;-77
2022/01/01 08:03:01;;;;;;;6.20;1.38;;;13.80;99.90;;;;;;5029499;28;20040;-79
2022/01/01 08:05:26;;;;;;;2.38;1.20;;;14.00;99.90;;;;;;5022263;28;20022;-76
2022/01/01 08:07:59;;;;;;;;;;;14.10;99.90;;;;;;5014885;28;20064;-78
2022/01/01 08:10:25;;;;;;;2.28;1.10;;;14.30;99.90;;;;;;5015024;28;19955;-77
2022/01/01 08:13:23;;;;;;;;;;;14.50;99.90;;;;;;5017869;28;20054;-78
2022/01/01 08:15:54;;;;;;;3.15;1.48;;;14.70;99.90;;;;;;5024031;28;19905;-78
2022/01/01 08:18:31;;;;;;;3.85;1.45;;;14.70;99.90;;;;;;5022870;28;20049;-77
2022/01/01 08:21:06;;;;;;;2.92;1.98;;;14.80;99.90;;;;;;5019971;28;20030;-79
2022/01/01 08:23:35;;;;;;;6.35;1.55;;;14.80;99.90;;;;;;5019330;28;20038;-78
2022/01/01 08:26:03;;;;;;;2.67;1.50;;;14.90;99.90;;;;;;5006839;28;20037;-78
2022/01/01 08:28:30;;;;;;;2.75;1.08;;;15.10;99.90;;;;;;5011442;28;20042;-78
2022/01/01 08:31:01;;;;;;;3.53;1.17;;;15.30;99.90;;;;;;5005494;28;20034;-78
2022/01/01 08:33:28;;;;;;;2.95;1.27;;;15.50;99.90;;;;;;5019228;28;20105;-78
2022/01/01 08:35:56;;;;;;;6.28;1.67;;;15.70;99.90;;;;;;5021900;28;20052;-78
2022/01/01 08:38:39;;;;;;;4.72;1.50;;;15.80;99.90;;;;;;5028601;28;20022;-79
2022/01/01 08:41:07;;;;;;;6.70;1.95;;;15.60;99.90;;;;;;5030013;28;20014;-79
2022/01/01 08:43:33;;;;;;;3.38;1.63;;;15.50;99.90;;;;;;5010171;28;20038;-79
2022/01/01 08:45:59;;;;;;;3.28;1.70;;;15.40;99.90;;;;;;5017024;28;20025;-78
2022/01/01 08:48:28;;;;;;;2.85;1.08;;;15.20;99.90;;;;;;5026006;28;20038;-79
2022/01/01 08:50:53;;;;;;;2.42;0.90;;;15.00;99.90;;;;;;5027377;28;20033;-80
2022/01/01 08:53:19;;;;;;;3.40;1.48;;;14.90;99.90;;;;;;5028828;28;20079;-78
2022/01/01 08:55:45;;;;;;;;;;;14.80;99.90;;;;;;5030849;28;20060;-78
2022/01/01 08:58:11;;;;;;;3.13;1.48;;;14.60;99.90;;;;;;5032958;28;19914;-79
2022/01/01 09:00:37;;;;;;;;;;;14.50;99.90;;;;;;5033535;28;20068;-78
2022/01/01 09:03:03;;;;;;;3.00;1.15;;;14.40;99.90;;;;;;5033007;28;19896;-79
2022/01/01 09:05:30;;;;;;;;;;;14.40;99.90;;;;;;5031769;28;20030;-79
2022/01/01 09:07:57;;;;;;;;;;;14.50;99.90;;;;;;5029865;28;19905;-78
2022/01/01 09:10:23;;;;;;;2.13;0.90;;;14.40;99.90;;;;;;5027086;28;20004;-78
2022/01/01 09:13:13;;;;;;;1.95;0.95;;;14.40;99.90;;;;;;5032682;28;20056;-78
2022/01/01 09:15:40;;;;;;;3.50;1.75;;;14.40;99.90;;;;;;5044028;28;20044;-79
2022/01/01 09:18:05;;;;;;;;;;;14.40;99.90;;;;;;5055008;28;20061;-78
2022/01/01 09:20:32;;;;;;;3.42;1.00;;;14.30;99.90;;;;;;5041781;28;19956;-79
2022/01/01 09:22:58;;;;;;;3.03;1.50;;;14.30;99.90;;;;;;5055418;28;20052;-78
2022/01/01 09:25:24;;;;;;;;;;;14.40;99.90;;;;;;5038918;28;20026;-79
2022/01/01 09:27:51;;;;;;;2.80;1.10;;;14.40;99.90;;;;;;5055106;28;19889;-79
2022/01/01 09:30:17;;;;;;;2.55;0.98;;;14.40;99.90;;;;;;5034598;28;20029;-78
2022/01/01 09:32:43;;;;;;;;;;;14.40;99.90;;;;;;5032850;28;20025;-78
2022/01/01 09:35:13;;;;;;;5.53;1.58;;;14.40;99.90;;;;;;5029881;28;19905;-79
2022/01/01 09:37:40;;;;;;;1.98;1.05;;;14.20;99.90;;;;;;5029475;28;20053;-78
2022/01/01 09:40:06;;;;;;;1.98;1.10;;;14.00;99.90;;;;;;5028150;28;20025;-78
2022/01/01 09:42:33;;;;;;;2.72;1.00;;;13.90;99.90;;;;;;5029707;28;20438;-78
2022/01/01 09:44:59;;;;;;;3.22;1.50;;;13.90;99.90;;;;;;5031875;28;20059;-78
2022/01/01 09:47:27;;;;;;;;;;;13.90;99.90;;;;;;5030591;28;20025;-78
2022/01/01 09:50:13;;;;;;;2.60;1.15;;;13.90;99.90;;;;;;5043641;28;20709;-78
2022/01/01 09:52:39;;;;;;;;;;;13.90;99.90;;;;;;5030443;28;20040;-78
2022/01/01 09:55:05;;;;;;;2.42;0.98;;;14.00;99.90;;;;;;5026728;28;19912;-78
2022/01/01 09:57:31;;;;;;;2.72;1.23;;;14.00;99.90;;;;;;5020496;28;20055;-78
2022/01/01 09:59:57;;;;;;;;;;;14.00;99.90;;;;;;5023791;28;20033;-79
2022/01/01 10:02:22;;;;;;;5.40;1.42;;;14.00;99.90;;;;;;5015296;28;19955;-77
2022/01/01 10:04:50;;;;;;;;;;;14.00;99.90;;;;;;5016538;28;20410;-78
2022/01/01 10:07:27;;;;;;;5.18;1.70;;;14.00;99.90;;;;;;5016910;28;19944;-77
2022/01/01 10:09:52;;;;;;;3.67;1.70;;;14.00;99.90;;;;;;5016283;28;20045;-77
2022/01/01 10:12:19;;;;;;;;;;;14.00;99.90;;;;;;5018150;28;20056;-78
2022/01/01 10:14:48;;;;;;;2.72;1.42;;;14.00;99.90;;;;;;5030494;28;19913;-78
2022/01/01 10:17:22;;;;;;;4.60;1.60;;;14.10;99.90;;;;;;5015053;28;20041;-79
2022/01/01 10:19:50;;;;;;;4.03;2.20;;;14.00;99.90;;;;;;5049358;28;20077;-78
2022/01/01 10:22:21;;;;;;;4.22;1.20;;;14.00;99.90;;;;;;5048168;28;20021;-77
2022/01/01 10:28:01;;;;;;;3.22;1.35;;;14.00;99.90;;;;;;5046278;28;20024;-78
2022/01/01 10:30:36;;;;;;;4.78;1.88;;;14.10;99.90;;;;;;5028290;28;20096;-78
2022/01/01 10:33:20;;;;;;;3.10;1.38;;;14.10;99.90;;;;;;5020927;28;20037;-78
2022/01/01 10:35:52;;;;;;;4.10;1.60;;;14.30;99.90;;;;;;5020602;28;20033;-77
2022/01/01 10:38:28;;;;;;;3.72;1.38;;;14.40;99.90;;;;;;5000916;28;20045;-77
2022/01/01 10:41:10;;;;;;;5.47;1.92;;;14.50;99.90;;;;;;5016521;28;20391;-77
2022/01/01 10:43:41;;;;;;;4.43;1.30;;;14.50;99.90;;;;;;5012961;28;20045;-78
2022/01/01 10:46:11;;;;;;;3.58;1.80;;;14.60;99.90;;;;;;5017367;28;20030;-78
2022/01/01 10:51:07;;;;;;;2.58;1.45;;;14.60;99.90;;;;;;5016575;28;20052;-78
2022/01/01 10:53:34;;;;;;;5.97;1.30;;;14.60;99.90;;;;;;4999562;28;20033;-78
2022/01/01 10:56:03;;;;;;;3.42;1.35;;;14.60;99.90;;;;;;5014294;28;20103;-77
2022/01/01 10:58:35;;;;;;;3.60;1.70;;;14.60;99.90;;;;;;5010467;28;20051;-77
2022/01/01 11:01:05;;;;;;;2.58;1.20;;;14.70;99.90;;;;;;5010180;28;20049;-78
2022/01/01 11:03:42;;;;;;;3.05;1.40;;;14.70;99.90;;;;;;5000682;28;20038;-78
2022/01/01 11:06:13;;;;;;;2.17;1.25;;;14.80;99.90;;;;;;5019315;28;20026;-78
2022/01/01 11:08:42;;;;;;;2.50;1.25;;;14.80;99.90;;;;;;4998338;28;20040;-77
2022/01/01 11:11:10;;;;;;;2.33;0.90;;;14.90;99.90;;;;;;5007270;28;20053;-79
2022/01/01 11:13:37;;;;;;;2.63;1.15;;;15.00;99.90;;;;;;5013440;28;20054;-78
2022/01/01 11:16:05;;;;;;;2.58;0.90;;;15.00;99.90;;;;;;5015912;28;20030;-78
2022/01/01 11:18:35;;;;;;;2.70;1.15;;;15.20;99.90;;;;;;5024898;28;20037;-78
2022/01/01 11:21:03;;;;;;;1.58;0.90;;;15.30;99.90;;;;;;5010536;28;20090;-78
2022/01/01 11:23:34;;;;;;;4.38;1.38;;;15.20;99.90;;;;;;5013515;28;20029;-79
2022/01/01 11:26:02;;;;;;;6.03;1.58;;;15.10;99.90;;;;;;5016062;28;20037;-79
2022/01/01 11:28:29;;;;;;;4.05;1.58;;;15.00;99.90;;;;;;5019577;28;20014;-79
2022/01/01 11:31:15;;;;;;;2.65;1.27;;;15.00;99.90;;;;;;5018403;28;20009;-78
2022/01/01 11:33:43;;;;;;;3.15;1.38;;;14.90;99.90;;;;;;5014556;28;20053;-79
2022/01/01 11:36:19;;;;;;;4.20;1.30;;;14.80;99.90;;;;;;5015922;28;20041;-79
2022/01/01 11:38:49;;;;;;;3.25;1.45;;;14.70;99.90;;;;;;4987282;28;20064;-79
2022/01/01 11:41:20;;;;;;;4.72;1.10;;;14.60;99.90;;;;;;5002155;28;20042;-79
2022/01/01 11:43:51;;;;;;;2.50;1.10;;;14.60;99.90;;;;;;4990819;28;20033;-78
2022/01/01 11:46:29;;;;;;;8.23;1.42;;;14.50;99.90;;;;;;4986019;28;20034;-79
2022/01/01 11:49:00;;;;;;;4.93;1.70;;;14.40;99.90;;;;;;5005817;28;20034;-79
2022/01/01 11:51:32;;;;;;;4.40;1.75;;;14.40;99.90;;;;;;4996093;28;20033;-79
2022/01/01 11:54:21;;;;;;;3.05;1.65;;;14.40;99.90;;;;;;4996323;28;20497;-79
2022/01/01 11:56:50;;;;;;;3.45;1.30;;;14.50;99.90;;;;;;5012862;28;20068;-78
2022/01/01 11:59:20;;;;;;;5.05;1.20;;;14.60;99.90;;;;;;4992490;28;20039;-79
2022/01/01 12:01:47;;;;;;;3.03;1.70;;;14.60;99.90;;;;;;5013788;28;20064;-76
2022/01/01 12:04:28;;;;;;;2.75;1.52;;;14.60;99.90;;;;;;5011434;28;20039;-79
2022/01/01 12:07:00;;;;;;;7.80;2.03;;;14.60;99.90;;;;;;4999813;28;20018;-79
2022/01/01 12:09:27;;;;;;;3.92;2.08;;;14.60;99.90;;;;;;5010128;28;20042;-79
2022/01/01 12:12:00;;;;;;;4.22;1.50;;;14.60;99.90;;;;;;5011352;28;20137;-79
2022/01/01 12:14:28;;;;;;;4.63;2.58;;;14.60;99.90;;;;;;4998041;28;20050;-79
2022/01/01 12:17:04;;;;;;;6.30;2.50;;;14.60;99.90;;;;;;5015847;28;20053;-80
2022/01/01 12:19:38;;;;;;;3.20;1.55;;;14.70;99.90;;;;;;4998438;28;20039;-79
2022/01/01 12:22:07;;;;;;;5.97;2.28;;;14.60;99.90;;;;;;5017814;28;20043;-79
2022/01/01 12:24:38;;;;;;;2.63;1.50;;;14.60;99.90;;;;;;5027119;28;20026;-79
2022/01/01 12:27:22;;;;;;;4.53;2.42;;;14.60;99.90;;;;;;5004591;28;20065;-79
2022/01/01 12:30:06;;;;;;;3.80;1.70;;;14.60;99.90;;;;;;5016220;28;20074;-79
2022/01/01 12:32:45;;;;;;;3.78;1.98;;;14.60;99.90;;;;;;4997607;28;20414;-79
2022/01/01 12:35:22;;;;;;;2.55;1.42;;;14.50;99.90;;;;;;4999185;28;20088;-79
2022/01/01 12:37:49;;;;;;;3.90;1.63;;;14.50;99.90;;;;;;4995735;28;20097;-80
2022/01/01 12:40:18;;;;;;;3.72;2.00;;;14.50;99.90;;;;;;4984724;28;20042;-79
2022/01/01 12:42:46;;;;;;;5.13;2.38;;;14.50;99.90;;;;;;5014367;28;20026;-79
2022/01/01 12:45:14;;;;;;;2.67;1.48;;;14.50;99.90;;;;;;5006021;28;20046;-80
2022/01/01 12:47:42;;;;;;;4.18;1.67;;;14.40;99.90;;;;;;5011575;28;20054;-79
2022/01/01 12:50:09;;;;;;;3.22;1.52;;;14.40;99.90;;;;;;5004456;28;20054;-79
2022/01/01 12:52:35;;;;;;;3.80;2.10;;;14.30;99.90;;;;;;5008341;28;20037;-79
2022/01/01 12:55:07;;;;;;;2.35;1.10;;;14.20;99.90;;;;;;5007842;28;20041;-80
2022/01/01 12:57:34;;;;;;;4.07;1.42;;;14.20;99.90;;;;;;5015569;28;20133;-79
2022/01/01 13:00:22;;;;;;;3.25;1.60;;;14.10;99.90;;;;;;5029766;28;20074;-79
2022/01/01 13:02:59;;;;;;;4.15;1.65;;;14.10;99.90;;;;;;5027590;28;20030;-80
2022/01/01 13:05:26;;;;;;;3.28;1.60;;;14.00;99.90;;;;;;5023011;28;20038;-79
2022/01/01 13:07:54;;;;;;;5.82;1.42;;;14.00;99.90;;;;;;5022280;28;20038;-79
2022/01/01 13:10:24;;;;;;;4.65;1.63;;;13.90;99.90;;;;;;5027301;28;20034;-79
2022/01/01 13:12:53;;;;;;;3.00;1.35;;;13.80;99.90;;;;;;5016606;28;20077;-79
2022/01/01 13:15:20;;;;;;;3.03;1.50;;;13.80;99.90;;;;;;5017822;28;20054;-78
2022/01/01 13:17:49;;;;;;;3.95;1.40;;;13.80;99.90;;;;;;4992470;28;20101;-80
2022/01/01 13:20:16;;;;;;;3.50;1.55;;;13.80;99.90;;;;;;4996555;28;20041;-78
2022/01/01 13:22:43;;;;;;;2.92;1.23;;;13.70;99.90;;;;;;4999729;28;20042;-79